Shepherd's Bush, United Kingdom
Current Conditions -  °F | °C
As of 8:50 AM on Wednesday 28 Jan 2015 (Local Time) from EGWU Reporting Station
Light Rain Light Rain  
Wind Chill: 50°   Ceiling: 800
Heat Index: 50°   Visibility: 6mi
Dew Point: 46°   Wind: 16mph
Humidity: 87%   Direction: 230°SW
Pressure: 29.59"   Gusts: NA
Location:  51.51°N, 0.24°W
Report Text: EGWU 280850Z 23014KT 9999 -RADZ BKN008 OVC015 10/08 Q1002 GRN TEMPO 4000 RADZ SCT005 YLO1
Loading
Personal Weather Stations






























Interactive Weather Map New forecast layout! Learn more

10-Day Weather Forecast

Advertisements
Track Severe Weather on mobile